Newport, Nebraska
Current Conditions -  °F | °C
As of 9:15 AM on Thursday 30 Oct 2014 (Local Time) from KANW Reporting Station
Clear Clear  
Wind Chill: 37°   Ceiling: Unl
Heat Index: 44°   Visibility: 10mi
Dew Point: 34°   Wind: 14mph
Humidity: 68%   Direction: 310°NW
Pressure: 30.19"   Gusts: 20mph
Location:  42.6°N, 99.33°W
Report Text: KANW 301415Z AUTO 31012G17KT 10SM CLR 07/01 A3019 RMK AO2 T00650010
Loading
Personal Weather Stations






























Interactive Weather Map
Tropical Storm Tracking
New forecast layout! Learn more

10-Day Weather Forecast

Advertisements
Track Severe Weather on mobile